sensor_id;sensor_type;location;lat;lon;timestamp;temperature;humidity
10411;DHT22;5251;52.112;8.606;2022-09-20T00:01:03;13.10;99.90
10411;DHT22;5251;52.112;8.606;2022-09-20T00:03:30;13.00;99.90
10411;DHT22;5251;52.112;8.606;2022-09-20T00:05:59;13.00;99.90
10411;DHT22;5251;52.112;8.606;2022-09-20T00:08:26;12.90;99.90
10411;DHT22;5251;52.112;8.606;2022-09-20T00:10:56;12.90;99.90
10411;DHT22;5251;52.112;8.606;2022-09-20T00:13:21;12.80;99.90
10411;DHT22;5251;52.112;8.606;2022-09-20T00:15:47;12.70;99.90
10411;DHT22;5251;52.112;8.606;2022-09-20T00:18:13;12.70;99.90
10411;DHT22;5251;52.112;8.606;2022-09-20T00:20:46;12.60;99.90
10411;DHT22;5251;52.112;8.606;2022-09-20T00:23:12;12.60;99.90
10411;DHT22;5251;52.112;8.606;2022-09-20T00:25:37;12.50;99.90
10411;DHT22;5251;52.112;8.606;2022-09-20T00:28:03;12.50;99.90
10411;DHT22;5251;52.112;8.606;2022-09-20T00:30:31;12.50;99.90
10411;DHT22;5251;52.112;8.606;2022-09-20T00:32:57;12.40;99.90
10411;DHT22;5251;52.112;8.606;2022-09-20T00:35:22;12.50;99.90
10411;DHT22;5251;52.112;8.606;2022-09-20T00:37:48;12.40;99.90
10411;DHT22;5251;52.112;8.606;2022-09-20T00:40:16;12.40;99.90
10411;DHT22;5251;52.112;8.606;2022-09-20T00:42:44;12.40;99.90
10411;DHT22;5251;52.112;8.606;2022-09-20T00:45:29;12.40;99.90
10411;DHT22;5251;52.112;8.606;2022-09-20T00:48:02;12.40;99.90
10411;DHT22;5251;52.112;8.606;2022-09-20T00:50:44;12.30;99.90
10411;DHT22;5251;52.112;8.606;2022-09-20T00:55:59;12.30;99.90
10411;DHT22;5251;52.112;8.606;2022-09-20T00:58:27;12.20;99.90
10411;DHT22;5251;52.112;8.606;2022-09-20T01:00:57;12.20;99.90
10411;DHT22;5251;52.112;8.606;2022-09-20T01:03:25;12.10;99.90
10411;DHT22;5251;52.112;8.606;2022-09-20T01:05:53;12.20;99.90
10411;DHT22;5251;52.112;8.606;2022-09-20T01:08:20;12.10;99.90
10411;DHT22;5251;52.112;8.606;2022-09-20T01:10:49;12.10;99.90
10411;DHT22;5251;52.112;8.606;2022-09-20T01:13:14;12.10;99.90
10411;DHT22;5251;52.112;8.606;2022-09-20T01:15:41;12.10;99.90
10411;DHT22;5251;52.112;8.606;2022-09-20T01:18:08;12.00;99.90
10411;DHT22;5251;52.112;8.606;2022-09-20T01:20:37;12.00;99.90
10411;DHT22;5251;52.112;8.606;2022-09-20T01:28:28;12.00;99.90
10411;DHT22;5251;52.112;8.606;2022-09-20T01:31:17;11.90;99.90
10411;DHT22;5251;52.112;8.606;2022-09-20T01:36:22;11.90;99.90
10411;DHT22;5251;52.112;8.606;2022-09-20T01:39:09;11.90;99.90
10411;DHT22;5251;52.112;8.606;2022-09-20T01:41:57;11.90;99.90
10411;DHT22;5251;52.112;8.606;2022-09-20T01:46:56;11.80;99.90
10411;DHT22;5251;52.112;8.606;2022-09-20T01:49:50;11.80;99.90
10411;DHT22;5251;52.112;8.606;2022-09-20T02:00:19;11.80;99.90
10411;DHT22;5251;52.112;8.606;2022-09-20T02:11:05;11.70;99.90
10411;DHT22;5251;52.112;8.606;2022-09-20T02:16:31;11.60;99.90
10411;DHT22;5251;52.112;8.606;2022-09-20T02:41:51;11.80;99.90
10411;DHT22;5251;52.112;8.606;2022-09-20T02:44:28;11.90;99.90
10411;DHT22;5251;52.112;8.606;2022-09-20T02:53:07;11.90;99.90
10411;DHT22;5251;52.112;8.606;2022-09-20T02:56:07;11.90;99.90
10411;DHT22;5251;52.112;8.606;2022-09-20T03:06:54;11.90;99.90
10411;DHT22;5251;52.112;8.606;2022-09-20T03:09:26;11.90;99.90
10411;DHT22;5251;52.112;8.606;2022-09-20T03:14:33;11.90;99.90
10411;DHT22;5251;52.112;8.606;2022-09-20T03:25:03;11.90;99.90
10411;DHT22;5251;52.112;8.606;2022-09-20T03:44:23;11.70;99.90
10411;DHT22;5251;52.112;8.606;2022-09-20T03:52:22;11.70;99.90
10411;DHT22;5251;52.112;8.606;2022-09-20T03:55:16;11.60;99.90
10411;DHT22;5251;52.112;8.606;2022-09-20T04:12:06;11.70;99.90
10411;DHT22;5251;52.112;8.606;2022-09-20T04:14:53;11.70;99.90
10411;DHT22;5251;52.112;8.606;2022-09-20T04:20:16;11.80;99.90
10411;DHT22;5251;52.112;8.606;2022-09-20T04:22:49;11.80;99.90
10411;DHT22;5251;52.112;8.606;2022-09-20T04:25:33;11.80;99.90
10411;DHT22;5251;52.112;8.606;2022-09-20T04:28:07;11.80;99.90
10411;DHT22;5251;52.112;8.606;2022-09-20T04:30:37;11.80;99.90
10411;DHT22;5251;52.112;8.606;2022-09-20T04:33:24;11.80;99.90
10411;DHT22;5251;52.112;8.606;2022-09-20T04:38:48;11.80;99.90
10411;DHT22;5251;52.112;8.606;2022-09-20T05:14:23;11.80;99.90
10411;DHT22;5251;52.112;8.606;2022-09-20T05:17:54;11.80;99.90
10411;DHT22;5251;52.112;8.606;2022-09-20T05:20:15;11.80;99.90
10411;DHT22;5251;52.112;8.606;2022-09-20T05:25:38;11.80;99.90
10411;DHT22;5251;52.112;8.606;2022-09-20T05:31:25;11.70;99.90
10411;DHT22;5251;52.112;8.606;2022-09-20T05:33:56;11.70;99.90
10411;DHT22;5251;52.112;8.606;2022-09-20T05:36:44;11.70;99.90
10411;DHT22;5251;52.112;8.606;2022-09-20T05:39:31;11.80;99.90
10411;DHT22;5251;52.112;8.606;2022-09-20T05:48:08;11.80;99.90
10411;DHT22;5251;52.112;8.606;2022-09-20T05:50:51;11.90;99.90
10411;DHT22;5251;52.112;8.606;2022-09-20T05:53:45;12.00;99.90
10411;DHT22;5251;52.112;8.606;2022-09-20T06:16:24;12.50;99.90
10411;DHT22;5251;52.112;8.606;2022-09-20T06:19:10;12.50;99.90
10411;DHT22;5251;52.112;8.606;2022-09-20T06:27:29;12.70;99.90
10411;DHT22;5251;52.112;8.606;2022-09-20T06:30:02;12.80;99.90
10411;DHT22;5251;52.112;8.606;2022-09-20T06:32:30;12.90;99.90
10411;DHT22;5251;52.112;8.606;2022-09-20T06:34:57;13.00;99.90
10411;DHT22;5251;52.112;8.606;2022-09-20T06:37:43;13.00;99.90
10411;DHT22;5251;52.112;8.606;2022-09-20T06:40:45;13.10;99.90
10411;DHT22;5251;52.112;8.606;2022-09-20T06:43:30;13.20;99.90
10411;DHT22;5251;52.112;8.606;2022-09-20T06:45:57;13.30;99.90
10411;DHT22;5251;52.112;8.606;2022-09-20T06:48:22;13.30;99.90
10411;DHT22;5251;52.112;8.606;2022-09-20T06:50:50;13.40;99.90
10411;DHT22;5251;52.112;8.606;2022-09-20T06:53:26;13.50;99.90
10411;DHT22;5251;52.112;8.606;2022-09-20T06:55:53;13.50;99.90
10411;DHT22;5251;52.112;8.606;2022-09-20T06:58:19;13.50;99.90
10411;DHT22;5251;52.112;8.606;2022-09-20T07:00:44;13.70;99.90
10411;DHT22;5251;52.112;8.606;2022-09-20T07:03:10;13.70;99.90
10411;DHT22;5251;52.112;8.606;2022-09-20T07:05:37;13.70;99.90
10411;DHT22;5251;52.112;8.606;2022-09-20T07:08:03;13.90;99.90
10411;DHT22;5251;52.112;8.606;2022-09-20T07:10:29;13.80;99.90
10411;DHT22;5251;52.112;8.606;2022-09-20T07:12:59;13.90;99.90
10411;DHT22;5251;52.112;8.606;2022-09-20T07:15:33;14.00;99.90
10411;DHT22;5251;52.112;8.606;2022-09-20T07:17:59;14.10;99.90
10411;DHT22;5251;52.112;8.606;2022-09-20T07:20:25;14.10;99.90
10411;DHT22;5251;52.112;8.606;2022-09-20T07:22:51;14.20;99.90
10411;DHT22;5251;52.112;8.606;2022-09-20T07:25:18;14.30;99.90
10411;DHT22;5251;52.112;8.606;2022-09-20T07:27:45;14.30;99.90
10411;DHT22;5251;52.112;8.606;2022-09-20T07:30:12;14.30;99.90
10411;DHT22;5251;52.112;8.606;2022-09-20T07:32:38;14.30;99.90
10411;DHT22;5251;52.112;8.606;2022-09-20T07:35:09;14.40;99.90
10411;DHT22;5251;52.112;8.606;2022-09-20T07:37:35;14.40;99.90
10411;DHT22;5251;52.112;8.606;2022-09-20T07:40:03;14.50;99.90
10411;DHT22;5251;52.112;8.606;2022-09-20T07:42:29;14.50;99.90
10411;DHT22;5251;52.112;8.606;2022-09-20T07:44:55;14.50;99.90
10411;DHT22;5251;52.112;8.606;2022-09-20T07:47:20;14.60;99.90
10411;DHT22;5251;52.112;8.606;2022-09-20T07:49:49;14.60;99.90
10411;DHT22;5251;52.112;8.606;2022-09-20T07:52:16;14.60;99.90
10411;DHT22;5251;52.112;8.606;2022-09-20T07:54:41;14.70;99.90
10411;DHT22;5251;52.112;8.606;2022-09-20T07:57:07;14.70;99.90
10411;DHT22;5251;52.112;8.606;2022-09-20T07:59:33;14.80;99.90
10411;DHT22;5251;52.112;8.606;2022-09-20T08:01:58;14.90;99.90
10411;DHT22;5251;52.112;8.606;2022-09-20T08:04:25;14.90;99.90
10411;DHT22;5251;52.112;8.606;2022-09-20T08:06:51;15.00;99.90
10411;DHT22;5251;52.112;8.606;2022-09-20T08:09:16;15.10;99.90
10411;DHT22;5251;52.112;8.606;2022-09-20T08:11:42;15.20;99.90
10411;DHT22;5251;52.112;8.606;2022-09-20T08:14:12;15.30;99.90
10411;DHT22;5251;52.112;8.606;2022-09-20T08:16:40;15.30;99.90
10411;DHT22;5251;52.112;8.606;2022-09-20T08:19:07;15.30;99.90
10411;DHT22;5251;52.112;8.606;2022-09-20T08:21:34;15.40;99.90
10411;DHT22;5251;52.112;8.606;2022-09-20T08:24:00;15.40;99.90
10411;DHT22;5251;52.112;8.606;2022-09-20T08:26:28;15.50;99.90
10411;DHT22;5251;52.112;8.606;2022-09-20T08:28:57;15.60;99.90
10411;DHT22;5251;52.112;8.606;2022-09-20T08:31:28;15.70;99.90
10411;DHT22;5251;52.112;8.606;2022-09-20T08:33:56;15.70;99.90
10411;DHT22;5251;52.112;8.606;2022-09-20T08:36:24;15.80;99.90
10411;DHT22;5251;52.112;8.606;2022-09-20T08:38:52;15.90;99.90
10411;DHT22;5251;52.112;8.606;2022-09-20T08:44:10;15.90;99.90
10411;DHT22;5251;52.112;8.606;2022-09-20T08:46:49;16.00;99.90
10411;DHT22;5251;52.112;8.606;2022-09-20T08:49:24;16.00;99.90
10411;DHT22;5251;52.112;8.606;2022-09-20T08:51:50;16.00;99.90
10411;DHT22;5251;52.112;8.606;2022-09-20T08:54:16;16.00;99.90
10411;DHT22;5251;52.112;8.606;2022-09-20T08:56:42;15.90;99.90
10411;DHT22;5251;52.112;8.606;2022-09-20T08:59:16;15.90;99.90
10411;DHT22;5251;52.112;8.606;2022-09-20T09:01:45;15.90;99.90
10411;DHT22;5251;52.112;8.606;2022-09-20T09:04:16;15.90;99.90
10411;DHT22;5251;52.112;8.606;2022-09-20T09:06:42;16.00;99.90
10411;DHT22;5251;52.112;8.606;2022-09-20T09:09:18;16.10;99.90
10411;DHT22;5251;52.112;8.606;2022-09-20T09:11:45;16.30;99.90
10411;DHT22;5251;52.112;8.606;2022-09-20T09:14:34;16.40;99.90
10411;DHT22;5251;52.112;8.606;2022-09-20T09:17:31;16.50;99.90
10411;DHT22;5251;52.112;8.606;2022-09-20T09:20:19;16.70;99.90
10411;DHT22;5251;52.112;8.606;2022-09-20T09:22:48;16.90;99.90
10411;DHT22;5251;52.112;8.606;2022-09-20T09:25:31;17.10;99.90
10411;DHT22;5251;52.112;8.606;2022-09-20T09:28:00;17.30;99.90
10411;DHT22;5251;52.112;8.606;2022-09-20T09:30:35;17.40;99.90
10411;DHT22;5251;52.112;8.606;2022-09-20T09:38:22;17.80;99.90
10411;DHT22;5251;52.112;8.606;2022-09-20T09:40:51;17.80;99.90
10411;DHT22;5251;52.112;8.606;2022-09-20T09:43:24;17.70;99.90
10411;DHT22;5251;52.112;8.606;2022-09-20T09:45:53;17.70;99.90
10411;DHT22;5251;52.112;8.606;2022-09-20T09:50:48;17.70;99.90
10411;DHT22;5251;52.112;8.606;2022-09-20T09:53:23;17.70;99.90
10411;DHT22;5251;52.112;8.606;2022-09-20T09:58:54;17.90;99.90
10411;DHT22;5251;52.112;8.606;2022-09-20T10:09:53;18.20;99.90
10411;DHT22;5251;52.112;8.606;2022-09-20T10:12:29;18.20;99.90
10411;DHT22;5251;52.112;8.606;2022-09-20T10:33:43;18.10;99.90
10411;DHT22;5251;52.112;8.606;2022-09-20T10:36:22;18.00;99.40
10411;DHT22;5251;52.112;8.606;2022-09-20T10:39:04;17.90;99.50
10411;DHT22;5251;52.112;8.606;2022-09-20T10:41:43;17.90;99.90
10411;DHT22;5251;52.112;8.606;2022-09-20T10:47:26;17.80;99.90
10411;DHT22;5251;52.112;8.606;2022-09-20T10:55:37;17.80;99.90
10411;DHT22;5251;52.112;8.606;2022-09-20T11:06:16;18.10;99.90
10411;DHT22;5251;52.112;8.606;2022-09-20T11:08:46;18.20;99.90
10411;DHT22;5251;52.112;8.606;2022-09-20T11:16:32;18.50;99.90
10411;DHT22;5251;52.112;8.606;2022-09-20T11:19:31;18.70;99.40
10411;DHT22;5251;52.112;8.606;2022-09-20T11:22:39;18.80;99.90
10411;DHT22;5251;52.112;8.606;2022-09-20T11:25:17;19.00;99.90
10411;DHT22;5251;52.112;8.606;2022-09-20T11:27:54;19.10;97.80
10411;DHT22;5251;52.112;8.606;2022-09-20T11:30:22;19.20;95.40
10411;DHT22;5251;52.112;8.606;2022-09-20T11:33:15;19.20;95.40
10411;DHT22;5251;52.112;8.606;2022-09-20T11:35:49;19.20;95.10
10411;DHT22;5251;52.112;8.606;2022-09-20T11:38:39;19.30;93.70
10411;DHT22;5251;52.112;8.606;2022-09-20T11:41:22;19.20;94.00
10411;DHT22;5251;52.112;8.606;2022-09-20T11:43:50;19.20;93.50
10411;DHT22;5251;52.112;8.606;2022-09-20T11:46:22;19.10;93.50
10411;DHT22;5251;52.112;8.606;2022-09-20T11:49:02;19.10;92.90
10411;DHT22;5251;52.112;8.606;2022-09-20T11:54:43;19.00;93.80
10411;DHT22;5251;52.112;8.606;2022-09-20T11:57:13;19.00;94.90
10411;DHT22;5251;52.112;8.606;2022-09-20T11:59:51;19.00;95.40
10411;DHT22;5251;52.112;8.606;2022-09-20T12:02:36;19.00;95.70
10411;DHT22;5251;52.112;8.606;2022-09-20T12:05:05;18.90;94.90
10411;DHT22;5251;52.112;8.606;2022-09-20T12:07:38;18.90;95.20
10411;DHT22;5251;52.112;8.606;2022-09-20T12:10:23;18.90;94.50
10411;DHT22;5251;52.112;8.606;2022-09-20T12:12:55;18.90;95.70
10411;DHT22;5251;52.112;8.606;2022-09-20T12:15:28;18.90;95.40
10411;DHT22;5251;52.112;8.606;2022-09-20T12:28:50;18.80;94.00
10411;DHT22;5251;52.112;8.606;2022-09-20T12:36:37;19.00;94.80
10411;DHT22;5251;52.112;8.606;2022-09-20T12:41:48;19.00;92.70
10411;DHT22;5251;52.112;8.606;2022-09-20T13:00:46;18.90;92.10
10411;DHT22;5251;52.112;8.606;2022-09-20T13:03:22;18.80;88.80
10411;DHT22;5251;52.112;8.606;2022-09-20T13:09:05;18.70;88.00
10411;DHT22;5251;52.112;8.606;2022-09-20T13:14:14;18.50;85.50
10411;DHT22;5251;52.112;8.606;2022-09-20T13:19:50;18.60;90.80
10411;DHT22;5251;52.112;8.606;2022-09-20T13:22:28;18.60;90.20
10411;DHT22;5251;52.112;8.606;2022-09-20T13:25:00;18.60;91.50
10411;DHT22;5251;52.112;8.606;2022-09-20T13:27:33;18.60;91.70
10411;DHT22;5251;52.112;8.606;2022-09-20T13:30:21;18.70;92.50
10411;DHT22;5251;52.112;8.606;2022-09-20T13:32:48;18.80;92.60
10411;DHT22;5251;52.112;8.606;2022-09-20T13:37:57;18.90;91.80
10411;DHT22;5251;52.112;8.606;2022-09-20T13:40:34;19.00;91.70
10411;DHT22;5251;52.112;8.606;2022-09-20T13:45:55;19.30;91.20
10411;DHT22;5251;52.112;8.606;2022-09-20T13:48:28;19.40;91.30
10411;DHT22;5251;52.112;8.606;2022-09-20T13:50:55;19.40;89.40
10411;DHT22;5251;52.112;8.606;2022-09-20T13:53:23;19.50;89.80
10411;DHT22;5251;52.112;8.606;2022-09-20T13:55:50;19.50;88.80
10411;DHT22;5251;52.112;8.606;2022-09-20T13:58:31;19.40;88.80
10411;DHT22;5251;52.112;8.606;2022-09-20T14:01:02;19.40;90.00
10411;DHT22;5251;52.112;8.606;2022-09-20T14:03:31;19.40;88.60
10411;DHT22;5251;52.112;8.606;2022-09-20T14:05:59;19.40;87.30
10411;DHT22;5251;52.112;8.606;2022-09-20T14:08:40;19.30;87.90
10411;DHT22;5251;52.112;8.606;2022-09-20T14:13:39;19.10;89.10
10411;DHT22;5251;52.112;8.606;2022-09-20T14:16:06;19.10;86.80
10411;DHT22;5251;52.112;8.606;2022-09-20T14:18:34;19.10;86.10
10411;DHT22;5251;52.112;8.606;2022-09-20T14:21:00;19.00;86.20
10411;DHT22;5251;52.112;8.606;2022-09-20T14:23:28;19.00;85.10
10411;DHT22;5251;52.112;8.606;2022-09-20T14:28:32;19.00;85.40
10411;DHT22;5251;52.112;8.606;2022-09-20T14:31:24;19.00;88.00
10411;DHT22;5251;52.112;8.606;2022-09-20T14:33:54;19.10;87.00
10411;DHT22;5251;52.112;8.606;2022-09-20T14:36:23;19.10;86.50
10411;DHT22;5251;52.112;8.606;2022-09-20T14:38:51;19.10;85.80
10411;DHT22;5251;52.112;8.606;2022-09-20T14:43:58;19.20;84.80
10411;DHT22;5251;52.112;8.606;2022-09-20T14:46:38;19.20;85.50
10411;DHT22;5251;52.112;8.606;2022-09-20T14:49:29;19.10;84.30
10411;DHT22;5251;52.112;8.606;2022-09-20T14:52:25;19.10;84.30
10411;DHT22;5251;52.112;8.606;2022-09-20T14:55:22;19.10;83.10
10411;DHT22;5251;52.112;8.606;2022-09-20T14:57:55;19.00;83.20
10411;DHT22;5251;52.112;8.606;2022-09-20T15:00:21;18.90;83.10
10411;DHT22;5251;52.112;8.606;2022-09-20T15:02:46;18.90;83.30
10411;DHT22;5251;52.112;8.606;2022-09-20T15:05:30;18.80;83.70
10411;DHT22;5251;52.112;8.606;2022-09-20T15:07:56;18.80;84.50
10411;DHT22;5251;52.112;8.606;2022-09-20T15:10:23;18.80;85.40
10411;DHT22;5251;52.112;8.606;2022-09-20T15:12:49;18.80;86.30
10411;DHT22;5251;52.112;8.606;2022-09-20T15:15:16;18.70;84.40
10411;DHT22;5251;52.112;8.606;2022-09-20T15:17:45;18.70;86.20
10411;DHT22;5251;52.112;8.606;2022-09-20T15:20:18;18.70;85.60
10411;DHT22;5251;52.112;8.606;2022-09-20T15:22:46;18.80;87.00
10411;DHT22;5251;52.112;8.606;2022-09-20T15:25:15;18.80;86.20
10411;DHT22;5251;52.112;8.606;2022-09-20T15:27:42;18.80;86.80
10411;DHT22;5251;52.112;8.606;2022-09-20T15:30:10;18.90;84.90
10411;DHT22;5251;52.112;8.606;2022-09-20T15:32:36;18.80;85.20
10411;DHT22;5251;52.112;8.606;2022-09-20T15:35:01;18.70;85.60
10411;DHT22;5251;52.112;8.606;2022-09-20T15:37:27;18.70;86.50
10411;DHT22;5251;52.112;8.606;2022-09-20T15:39:53;18.70;86.70
10411;DHT22;5251;52.112;8.606;2022-09-20T15:42:19;18.70;86.70
10411;DHT22;5251;52.112;8.606;2022-09-20T15:44:48;18.60;87.10
10411;DHT22;5251;52.112;8.606;2022-09-20T15:47:15;18.60;88.30
10411;DHT22;5251;52.112;8.606;2022-09-20T15:49:41;18.50;85.50
10411;DHT22;5251;52.112;8.606;2022-09-20T15:52:12;18.50;86.10
10411;DHT22;5251;52.112;8.606;2022-09-20T15:54:38;18.50;86.40
10411;DHT22;5251;52.112;8.606;2022-09-20T15:57:04;18.40;85.40
10411;DHT22;5251;52.112;8.606;2022-09-20T15:59:29;18.40;85.30
10411;DHT22;5251;52.112;8.606;2022-09-20T16:02:00;18.40;86.00
10411;DHT22;5251;52.112;8.606;2022-09-20T16:04:26;18.30;85.50
10411;DHT22;5251;52.112;8.606;2022-09-20T16:06:53;18.30;86.60
10411;DHT22;5251;52.112;8.606;2022-09-20T16:09:19;18.30;87.10
10411;DHT22;5251;52.112;8.606;2022-09-20T16:11:47;18.30;86.10
10411;DHT22;5251;52.112;8.606;2022-09-20T16:14:13;18.20;86.40
10411;DHT22;5251;52.112;8.606;2022-09-20T16:16:39;18.30;86.70
10411;DHT22;5251;52.112;8.606;2022-09-20T16:19:05;18.20;86.80
10411;DHT22;5251;52.112;8.606;2022-09-20T16:21:50;18.20;86.90
10411;DHT22;5251;52.112;8.606;2022-09-20T16:24:22;18.20;87.30
10411;DHT22;5251;52.112;8.606;2022-09-20T16:26:48;18.20;87.90
10411;DHT22;5251;52.112;8.606;2022-09-20T16:29:14;18.10;88.70
10411;DHT22;5251;52.112;8.606;2022-09-20T16:31:44;18.10;89.20
10411;DHT22;5251;52.112;8.606;2022-09-20T16:34:24;18.00;90.50
10411;DHT22;5251;52.112;8.606;2022-09-20T16:37:04;18.00;90.20
10411;DHT22;5251;52.112;8.606;2022-09-20T16:39:30;17.90;90.20
10411;DHT22;5251;52.112;8.606;2022-09-20T16:42:05;17.90;90.40
10411;DHT22;5251;52.112;8.606;2022-09-20T16:44:35;17.80;90.90
10411;DHT22;5251;52.112;8.606;2022-09-20T16:47:03;17.80;90.70
10411;DHT22;5251;52.112;8.606;2022-09-20T16:49:31;17.70;91.10
10411;DHT22;5251;52.112;8.606;2022-09-20T16:51:57;17.60;91.20
10411;DHT22;5251;52.112;8.606;2022-09-20T16:54:22;17.60;91.50
10411;DHT22;5251;52.112;8.606;2022-09-20T16:56:49;17.50;91.80
10411;DHT22;5251;52.112;8.606;2022-09-20T16:59:17;17.50;92.10
10411;DHT22;5251;52.112;8.606;2022-09-20T17:01:43;17.40;92.30
10411;DHT22;5251;52.112;8.606;2022-09-20T17:04:10;17.30;92.50
10411;DHT22;5251;52.112;8.606;2022-09-20T17:06:38;17.20;92.60
10411;DHT22;5251;52.112;8.606;2022-09-20T17:09:05;17.10;92.80
10411;DHT22;5251;52.112;8.606;2022-09-20T17:11:34;17.10;93.00
10411;DHT22;5251;52.112;8.606;2022-09-20T17:14:00;16.90;93.00
10411;DHT22;5251;52.112;8.606;2022-09-20T17:16:31;16.90;93.20
10411;DHT22;5251;52.112;8.606;2022-09-20T17:19:24;16.70;93.20
10411;DHT22;5251;52.112;8.606;2022-09-20T17:21:50;16.60;93.50
10411;DHT22;5251;52.112;8.606;2022-09-20T17:24:21;16.50;93.80
10411;DHT22;5251;52.112;8.606;2022-09-20T17:26:47;16.50;93.90
10411;DHT22;5251;52.112;8.606;2022-09-20T17:29:15;16.40;94.20
10411;DHT22;5251;52.112;8.606;2022-09-20T17:31:46;16.30;94.40
10411;DHT22;5251;52.112;8.606;2022-09-20T17:34:14;16.20;94.70
10411;DHT22;5251;52.112;8.606;2022-09-20T17:36:43;16.00;94.90
10411;DHT22;5251;52.112;8.606;2022-09-20T17:39:11;15.90;95.10
10411;DHT22;5251;52.112;8.606;2022-09-20T17:41:39;15.80;95.40
10411;DHT22;5251;52.112;8.606;2022-09-20T17:44:05;15.70;95.70
10411;DHT22;5251;52.112;8.606;2022-09-20T17:46:35;15.60;95.80
10411;DHT22;5251;52.112;8.606;2022-09-20T17:49:04;15.50;96.10
10411;DHT22;5251;52.112;8.606;2022-09-20T17:51:57;15.40;96.40
10411;DHT22;5251;52.112;8.606;2022-09-20T17:54:23;15.30;96.70
10411;DHT22;5251;52.112;8.606;2022-09-20T17:56:50;15.20;97.00
10411;DHT22;5251;52.112;8.606;2022-09-20T17:59:17;15.00;97.20
10411;DHT22;5251;52.112;8.606;2022-09-20T18:01:45;14.90;97.50
10411;DHT22;5251;52.112;8.606;2022-09-20T18:04:11;14.80;97.80
10411;DHT22;5251;52.112;8.606;2022-09-20T18:06:46;14.70;98.10
10411;DHT22;5251;52.112;8.606;2022-09-20T18:09:17;14.60;98.20
10411;DHT22;5251;52.112;8.606;2022-09-20T18:11:49;14.50;98.30
10411;DHT22;5251;52.112;8.606;2022-09-20T18:14:16;14.40;98.80
10411;DHT22;5251;52.112;8.606;2022-09-20T18:16:43;14.30;98.50
10411;DHT22;5251;52.112;8.606;2022-09-20T18:19:09;14.20;98.60
10411;DHT22;5251;52.112;8.606;2022-09-20T18:21:35;14.20;98.80
10411;DHT22;5251;52.112;8.606;2022-09-20T18:24:04;14.10;99.00
10411;DHT22;5251;52.112;8.606;2022-09-20T18:26:30;14.00;99.50
10411;DHT22;5251;52.112;8.606;2022-09-20T18:29:04;13.90;99.40
10411;DHT22;5251;52.112;8.606;2022-09-20T18:31:38;13.80;99.60
10411;DHT22;5251;52.112;8.606;2022-09-20T18:34:09;13.70;99.70
10411;DHT22;5251;52.112;8.606;2022-09-20T18:36:37;13.70;99.90
10411;DHT22;5251;52.112;8.606;2022-09-20T18:39:06;13.60;99.90
10411;DHT22;5251;52.112;8.606;2022-09-20T18:41:34;13.50;99.90
10411;DHT22;5251;52.112;8.606;2022-09-20T18:44:02;13.40;99.90
10411;DHT22;5251;52.112;8.606;2022-09-20T18:46:29;13.40;99.90
10411;DHT22;5251;52.112;8.606;2022-09-20T18:48:57;13.30;99.90
10411;DHT22;5251;52.112;8.606;2022-09-20T18:51:25;13.30;99.90
10411;DHT22;5251;52.112;8.606;2022-09-20T18:53:54;13.20;99.90
10411;DHT22;5251;52.112;8.606;2022-09-20T18:56:33;13.20;99.90
10411;DHT22;5251;52.112;8.606;2022-09-20T18:59:04;13.10;99.90
10411;DHT22;5251;52.112;8.606;2022-09-20T19:04:42;13.00;99.90
10411;DHT22;5251;52.112;8.606;2022-09-20T19:12:48;12.90;99.90
10411;DHT22;5251;52.112;8.606;2022-09-20T19:21:20;12.70;99.90
10411;DHT22;5251;52.112;8.606;2022-09-20T19:26:34;12.60;99.90
10411;DHT22;5251;52.112;8.606;2022-09-20T19:29:03;12.50;99.90
10411;DHT22;5251;52.112;8.606;2022-09-20T19:31:36;12.50;99.90
10411;DHT22;5251;52.112;8.606;2022-09-20T19:34:05;12.50;99.90
10411;DHT22;5251;52.112;8.606;2022-09-20T19:42:58;12.40;99.90
10411;DHT22;5251;52.112;8.606;2022-09-20T19:45:46;12.30;99.90
10411;DHT22;5251;52.112;8.606;2022-09-20T19:48:43;12.20;99.90
10411;DHT22;5251;52.112;8.606;2022-09-20T19:51:12;12.20;99.90
10411;DHT22;5251;52.112;8.606;2022-09-20T19:53:39;12.20;99.90
10411;DHT22;5251;52.112;8.606;2022-09-20T19:56:26;12.10;99.90
10411;DHT22;5251;52.112;8.606;2022-09-20T19:58:53;12.10;99.90
10411;DHT22;5251;52.112;8.606;2022-09-20T20:01:21;12.00;99.90
10411;DHT22;5251;52.112;8.606;2022-09-20T20:03:54;12.00;99.90
10411;DHT22;5251;52.112;8.606;2022-09-20T20:09:10;11.90;99.90
10411;DHT22;5251;52.112;8.606;2022-09-20T20:17:26;11.80;99.90
10411;DHT22;5251;52.112;8.606;2022-09-20T20:20:30;11.70;99.90
10411;DHT22;5251;52.112;8.606;2022-09-20T20:28:20;11.60;99.90
10411;DHT22;5251;52.112;8.606;2022-09-20T20:30:45;11.60;99.90
10411;DHT22;5251;52.112;8.606;2022-09-20T20:33:14;11.60;99.90
10411;DHT22;5251;52.112;8.606;2022-09-20T20:35:40;11.50;99.90
10411;DHT22;5251;52.112;8.606;2022-09-20T20:38:06;11.50;99.90
10411;DHT22;5251;52.112;8.606;2022-09-20T20:40:36;11.40;99.90
10411;DHT22;5251;52.112;8.606;2022-09-20T20:43:02;11.40;99.90
10411;DHT22;5251;52.112;8.606;2022-09-20T20:45:30;11.40;99.90
10411;DHT22;5251;52.112;8.606;2022-09-20T20:47:57;11.30;99.90
10411;DHT22;5251;52.112;8.606;2022-09-20T20:50:24;11.30;99.90
10411;DHT22;5251;52.112;8.606;2022-09-20T20:52:51;11.30;99.90
10411;DHT22;5251;52.112;8.606;2022-09-20T20:55:18;11.20;99.90
10411;DHT22;5251;52.112;8.606;2022-09-20T20:57:43;11.20;99.90
10411;DHT22;5251;52.112;8.606;2022-09-20T21:00:09;11.20;99.90
10411;DHT22;5251;52.112;8.606;2022-09-20T21:02:35;11.20;99.90
10411;DHT22;5251;52.112;8.606;2022-09-20T21:05:01;11.10;99.90
10411;DHT22;5251;52.112;8.606;2022-09-20T21:07:26;11.10;99.90
10411;DHT22;5251;52.112;8.606;2022-09-20T21:09:52;11.00;99.90
10411;DHT22;5251;52.112;8.606;2022-09-20T21:12:18;11.00;99.90
10411;DHT22;5251;52.112;8.606;2022-09-20T21:14:45;11.00;99.90
10411;DHT22;5251;52.112;8.606;2022-09-20T21:17:11;11.00;99.90
10411;DHT22;5251;52.112;8.606;2022-09-20T21:19:36;10.90;99.90
10411;DHT22;5251;52.112;8.606;2022-09-20T21:22:02;10.90;99.90
10411;DHT22;5251;52.112;8.606;2022-09-20T21:24:27;10.80;99.90
10411;DHT22;5251;52.112;8.606;2022-09-20T21:26:53;10.80;99.90
10411;DHT22;5251;52.112;8.606;2022-09-20T21:29:18;10.80;99.90
10411;DHT22;5251;52.112;8.606;2022-09-20T21:31:45;10.80;99.90
10411;DHT22;5251;52.112;8.606;2022-09-20T21:34:13;10.80;99.90
10411;DHT22;5251;52.112;8.606;2022-09-20T21:36:40;10.70;99.90
10411;DHT22;5251;52.112;8.606;2022-09-20T21:39:06;10.70;99.90
10411;DHT22;5251;52.112;8.606;2022-09-20T21:41:33;10.70;99.90
10411;DHT22;5251;52.112;8.606;2022-09-20T21:44:00;10.60;99.90
10411;DHT22;5251;52.112;8.606;2022-09-20T21:46:27;10.60;99.90
10411;DHT22;5251;52.112;8.606;2022-09-20T21:48:54;10.60;99.90
10411;DHT22;5251;52.112;8.606;2022-09-20T21:51:21;10.60;99.90
10411;DHT22;5251;52.112;8.606;2022-09-20T21:53:50;10.50;99.90
10411;DHT22;5251;52.112;8.606;2022-09-20T21:56:17;10.50;99.90
10411;DHT22;5251;52.112;8.606;2022-09-20T21:58:43;10.40;99.90
10411;DHT22;5251;52.112;8.606;2022-09-20T22:01:15;10.40;99.90
10411;DHT22;5251;52.112;8.606;2022-09-20T22:03:42;10.40;99.90
10411;DHT22;5251;52.112;8.606;2022-09-20T22:06:09;10.30;99.90